Jacks Fork River (Missouri), Alley Spring (07065495)

StateMissouriCurrentGood (192 cfs)
RiverJacks Fork RiverFlood - The river is flooding. Obstacles can be treacherous or deadly. The river should be avoided at this stage for casual trips and definitely for the inexperienced. Trips should be attempted only with protective gear and equipment.Flood(none)
Updated2019-10-14 2:30 (45 minutes ago)High - The river is high and potentially dangerous, especially for the young and / or inexperienced. Normal stream obstacles are sometimes difficult to navigate. Extended distances can be attempted, but canoe travel may not be advisable.High(none)
Discharge192 cfs (median: 64 cfs)Good - Conditions are ideal for a canoe or kayak. Boats typically will drag on fewer than one-quarter of riffles, if at all, and portages are unnecessary or rare. Normal float lengths can be attempted without a problem.Good100
Height3.06 feetLow - River is low but can still be floated. Some riffles are okay but most come with significant dragging and might need a portage. Float lengths should be reduced to accommodate low flow, dragging, and portages.Low(none)
TrendFalling (falling over 24 hours)Poor - River is too low to float comfortably. Most or all riffles will drag or must be portaged and some obstacles (such as slick shelf rock) cause undue problems. Avoid the river at this stage for casual paddling trips.Poor(none)
USGSExternal icon USGS Site for Alley Spring (07065495)LocationExternal icon Google Maps

Trending Data

Plot Image
ObservationHeightDischargeMaximum
Discharge
Minimum
Discharge
Mean
Discharge
P05P10P20P25P50
(Median)
P75P80P90P95
2019-10-14 02:30 3.06 192 621 (2015) 32 (2001) 104 33 40 51 53 64 107 114 227 516
2019-10-14 01:30 3.07 194 621 (2015) 32 (2001) 104 33 40 51 53 64 107 114 227 516
2019-10-14 00:30 3.08 197 621 (2015) 32 (2001) 104 33 40 51 53 64 107 114 227 516
2019-10-13 23:30 3.09 200 320 (2010) 32 (2001) 93 33 40 52 55 60 107 115 238 307
2019-10-13 22:30 3.10 203 320 (2010) 32 (2001) 93 33 40 52 55 60 107 115 238 307
2019-10-13 21:30 3.11 206 320 (2010) 32 (2001) 93 33 40 52 55 60 107 115 238 307
2019-10-13 20:30 3.13 212 320 (2010) 32 (2001) 93 33 40 52 55 60 107 115 238 307
2019-10-13 19:30 3.14 214 320 (2010) 32 (2001) 93 33 40 52 55 60 107 115 238 307
2019-10-13 18:30 3.15 217 320 (2010) 32 (2001) 93 33 40 52 55 60 107 115 238 307
2019-10-13 17:30 3.16 220 320 (2010) 32 (2001) 93 33 40 52 55 60 107 115 238 307
2019-10-13 16:30 3.17 223 320 (2010) 32 (2001) 93 33 40 52 55 60 107 115 238 307
2019-10-13 15:30 3.19 230 320 (2010) 32 (2001) 93 33 40 52 55 60 107 115 238 307
2019-10-13 14:30 3.21 236 320 (2010) 32 (2001) 93 33 40 52 55 60 107 115 238 307
2019-10-13 13:30 3.22 239 320 (2010) 32 (2001) 93 33 40 52 55 60 107 115 238 307
2019-10-13 12:30 3.23 242 320 (2010) 32 (2001) 93 33 40 52 55 60 107 115 238 307
2019-10-13 11:30 3.25 249 320 (2010) 32 (2001) 93 33 40 52 55 60 107 115 238 307
2019-10-13 10:30 3.27 255 320 (2010) 32 (2001) 93 33 40 52 55 60 107 115 238 307
2019-10-13 09:30 3.28 259 320 (2010) 32 (2001) 93 33 40 52 55 60 107 115 238 307
2019-10-13 08:30 3.30 265 320 (2010) 32 (2001) 93 33 40 52 55 60 107 115 238 307
2019-10-13 07:30 3.30 265 320 (2010) 32 (2001) 93 33 40 52 55 60 107 115 238 307
2019-10-13 06:30 3.32 272 320 (2010) 32 (2001) 93 33 40 52 55 60 107 115 238 307
2019-10-13 05:30 3.34 279 320 (2010) 32 (2001) 93 33 40 52 55 60 107 115 238 307
2019-10-13 04:30 3.37 290 320 (2010) 32 (2001) 93 33 40 52 55 60 107 115 238 307
2019-10-13 03:30 3.38 294 320 (2010) 32 (2001) 93 33 40 52 55 60 107 115 238 307
2019-10-13 02:30 3.40 301 320 (2010) 32 (2001) 93 33 40 52 55 60 107 115 238 307
2019-10-13 01:30 3.42 309 320 (2010) 32 (2001) 93 33 40 52 55 60 107 115 238 307
2019-10-13 00:30 3.44 317 320 (2010) 32 (2001) 93 33 40 52 55 60 107 115 238 307
2019-10-12 23:30 3.46 325 451 (2010) 32 (2001) 103 34 41 48 53 65 108 116 283 427
2019-10-12 22:30 3.49 337 451 (2010) 32 (2001) 103 34 41 48 53 65 108 116 283 427
2019-10-12 21:30 3.52 349 451 (2010) 32 (2001) 103 34 41 48 53 65 108 116 283 427
2019-10-12 20:30 3.54 358 451 (2010) 32 (2001) 103 34 41 48 53 65 108 116 283 427
2019-10-12 19:30 3.58 375 451 (2010) 32 (2001) 103 34 41 48 53 65 108 116 283 427
2019-10-12 18:30 3.60 384 451 (2010) 32 (2001) 103 34 41 48 53 65 108 116 283 427
2019-10-12 17:30 3.63 398 451 (2010) 32 (2001) 103 34 41 48 53 65 108 116 283 427
2019-10-12 16:30 3.68 417 451 (2010) 32 (2001) 103 34 41 48 53 65 108 116 283 427
2019-10-12 15:30 3.70 426 451 (2010) 32 (2001) 103 34 41 48 53 65 108 116 283 427
2019-10-12 14:30 3.75 451 451 (2010) 32 (2001) 103 34 41 48 53 65 108 116 283 427
2019-10-12 13:30 3.79 472 451 (2010) 32 (2001) 103 34 41 48 53 65 108 116 283 427
2019-10-12 12:30 3.83 493 451 (2010) 32 (2001) 103 34 41 48 53 65 108 116 283 427
2019-10-12 11:30 3.87 514 451 (2010) 32 (2001) 103 34 41 48 53 65 108 116 283 427
2019-10-12 10:30 3.91 537 451 (2010) 32 (2001) 103 34 41 48 53 65 108 116 283 427
2019-10-12 09:30 3.96 566 451 (2010) 32 (2001) 103 34 41 48 53 65 108 116 283 427
2019-10-12 08:30 4.01 596 451 (2010) 32 (2001) 103 34 41 48 53 65 108 116 283 427
2019-10-12 07:30 4.05 620 451 (2010) 32 (2001) 103 34 41 48 53 65 108 116 283 427
2019-10-12 06:30 4.10 652 451 (2010) 32 (2001) 103 34 41 48 53 65 108 116 283 427
2019-10-12 05:30 4.18 699 451 (2010) 32 (2001) 103 34 41 48 53 65 108 116 283 427
2019-10-12 04:30 4.23 734 451 (2010) 32 (2001) 103 34 41 48 53 65 108 116 283 427
2019-10-12 03:30 4.29 777 451 (2010) 32 (2001) 103 34 41 48 53 65 108 116 283 427
2019-10-12 02:30 4.35 822 451 (2010) 32 (2001) 103 34 41 48 53 65 108 116 283 427
2019-10-12 01:30 4.42 876 451 (2010) 32 (2001) 103 34 41 48 53 65 108 116 283 427
2019-10-12 00:30 4.48 925 451 (2010) 32 (2001) 103 34 41 48 53 65 108 116 283 427
2019-10-11 23:30 4.54 976 1160 (2015) 31 (2001) 148 33 39 47 53 64 101 121 445 1040
2019-10-11 22:30 4.55 984 1160 (2015) 31 (2001) 148 33 39 47 53 64 101 121 445 1040
2019-10-11 21:30 4.50 942 1160 (2015) 31 (2001) 148 33 39 47 53 64 101 121 445 1040
2019-10-11 20:30 4.30 784 1160 (2015) 31 (2001) 148 33 39 47 53 64 101 121 445 1040
2019-10-11 19:30 3.31 269 1160 (2015) 31 (2001) 148 33 39 47 53 64 101 121 445 1040
2019-10-11 18:30 2.91 154 1160 (2015) 31 (2001) 148 33 39 47 53 64 101 121 445 1040
2019-10-11 17:30 2.91 154 1160 (2015) 31 (2001) 148 33 39 47 53 64 101 121 445 1040
2019-10-11 16:30 2.90 151 1160 (2015) 31 (2001) 148 33 39 47 53 64 101 121 445 1040
2019-10-11 15:30 2.89 149 1160 (2015) 31 (2001) 148 33 39 47 53 64 101 121 445 1040
2019-10-11 14:30 2.89 149 1160 (2015) 31 (2001) 148 33 39 47 53 64 101 121 445 1040
2019-10-11 13:30 2.87 144 1160 (2015) 31 (2001) 148 33 39 47 53 64 101 121 445 1040
2019-10-11 12:30 2.87 144 1160 (2015) 31 (2001) 148 33 39 47 53 64 101 121 445 1040
2019-10-11 11:30 2.86 142 1160 (2015) 31 (2001) 148 33 39 47 53 64 101 121 445 1040
2019-10-11 10:30 2.85 140 1160 (2015) 31 (2001) 148 33 39 47 53 64 101 121 445 1040
2019-10-11 09:30 2.84 138 1160 (2015) 31 (2001) 148 33 39 47 53 64 101 121 445 1040
2019-10-11 08:30 2.82 134 1160 (2015) 31 (2001) 148 33 39 47 53 64 101 121 445 1040
2019-10-11 07:30 2.78 125 1160 (2015) 31 (2001) 148 33 39 47 53 64 101 121 445 1040
2019-10-11 06:30 2.75 119 1160 (2015) 31 (2001) 148 33 39 47 53 64 101 121 445 1040
2019-10-11 05:30 2.73 115 1160 (2015) 31 (2001) 148 33 39 47 53 64 101 121 445 1040
2019-10-11 04:30 2.70 110 1160 (2015) 31 (2001) 148 33 39 47 53 64 101 121 445 1040
2019-10-11 03:30 2.65 101 1160 (2015) 31 (2001) 148 33 39 47 53 64 101 121 445 1040
2019-10-11 02:30 2.61 94 1160 (2015) 31 (2001) 148 33 39 47 53 64 101 121 445 1040
2019-10-11 01:30 2.56 86 1160 (2015) 31 (2001) 148 33 39 47 53 64 101 121 445 1040
2019-10-11 00:30 2.56 86 1160 (2015) 31 (2001) 148 33 39 47 53 64 101 121 445 1040
2019-10-10 23:30 2.56 86 2270 (2010) 31 (2001) 172 32 35 50 53 65 88 112 250 1660
2019-10-10 22:30 2.55 85 2270 (2010) 31 (2001) 172 32 35 50 53 65 88 112 250 1660
2019-10-10 21:30 2.55 85 2270 (2010) 31 (2001) 172 32 35 50 53 65 88 112 250 1660
2019-10-10 20:30 2.55 85 2270 (2010) 31 (2001) 172 32 35 50 53 65 88 112 250 1660
2019-10-10 19:30 2.55 85 2270 (2010) 31 (2001) 172 32 35 50 53 65 88 112 250 1660
2019-10-10 18:30 2.54 84 2270 (2010) 31 (2001) 172 32 35 50 53 65 88 112 250 1660
2019-10-10 17:30 2.54 84 2270 (2010) 31 (2001) 172 32 35 50 53 65 88 112 250 1660
2019-10-10 16:30 2.54 84 2270 (2010) 31 (2001) 172 32 35 50 53 65 88 112 250 1660
2019-10-10 15:30 2.55 85 2270 (2010) 31 (2001) 172 32 35 50 53 65 88 112 250 1660
2019-10-10 14:30 2.55 85 2270 (2010) 31 (2001) 172 32 35 50 53 65 88 112 250 1660
2019-10-10 13:30 2.55 85 2270 (2010) 31 (2001) 172 32 35 50 53 65 88 112 250 1660
2019-10-10 12:30 2.55 85 2270 (2010) 31 (2001) 172 32 35 50 53 65 88 112 250 1660
2019-10-10 11:30 2.55 85 2270 (2010) 31 (2001) 172 32 35 50 53 65 88 112 250 1660
2019-10-10 10:30 2.55 85 2270 (2010) 31 (2001) 172 32 35 50 53 65 88 112 250 1660
2019-10-10 09:30 2.55 85 2270 (2010) 31 (2001) 172 32 35 50 53 65 88 112 250 1660
2019-10-10 08:30 2.55 85 2270 (2010) 31 (2001) 172 32 35 50 53 65 88 112 250 1660
2019-10-10 07:30 2.55 85 2270 (2010) 31 (2001) 172 32 35 50 53 65 88 112 250 1660
2019-10-10 06:30 2.55 85 2270 (2010) 31 (2001) 172 32 35 50 53 65 88 112 250 1660
2019-10-10 05:30 2.55 85 2270 (2010) 31 (2001) 172 32 35 50 53 65 88 112 250 1660
2019-10-10 04:30 2.55 85 2270 (2010) 31 (2001) 172 32 35 50 53 65 88 112 250 1660
2019-10-10 03:30 2.55 85 2270 (2010) 31 (2001) 172 32 35 50 53 65 88 112 250 1660
2019-10-10 02:30 2.55 85 2270 (2010) 31 (2001) 172 32 35 50 53 65 88 112 250 1660
2019-10-10 01:30 2.56 86 2270 (2010) 31 (2001) 172 32 35 50 53 65 88 112 250 1660
2019-10-10 00:30 2.56 86 2270 (2010) 31 (2001) 172 32 35 50 53 65 88 112 250 1660
2019-10-09 22:30 2.56 86 2600 (2010) 32 (2001) 182 32 35 52 54 64 83 104 276 1900
2019-10-09 21:30 2.56 86 2600 (2010) 32 (2001) 182 32 35 52 54 64 83 104 276 1900
2019-10-09 20:30 2.56 86 2600 (2010) 32 (2001) 182 32 35 52 54 64 83 104 276 1900
2019-10-09 19:30 2.56 86 2600 (2010) 32 (2001) 182 32 35 52 54 64 83 104 276 1900
2019-10-09 18:30 2.57 88 2600 (2010) 32 (2001) 182 32 35 52 54 64 83 104 276 1900
2019-10-09 17:30 2.57 88 2600 (2010) 32 (2001) 182 32 35 52 54 64 83 104 276 1900
2019-10-09 16:30 2.57 88 2600 (2010) 32 (2001) 182 32 35 52 54 64 83 104 276 1900
2019-10-09 15:30 2.57 88 2600 (2010) 32 (2001) 182 32 35 52 54 64 83 104 276 1900
2019-10-09 14:30 2.57 88 2600 (2010) 32 (2001) 182 32 35 52 54 64 83 104 276 1900
2019-10-09 13:30 2.58 89 2600 (2010) 32 (2001) 182 32 35 52 54 64 83 104 276 1900
2019-10-09 12:30 2.58 89 2600 (2010) 32 (2001) 182 32 35 52 54 64 83 104 276 1900
2019-10-09 11:30 2.58 89 2600 (2010) 32 (2001) 182 32 35 52 54 64 83 104 276 1900
2019-10-09 10:30 2.58 89 2600 (2010) 32 (2001) 182 32 35 52 54 64 83 104 276 1900
2019-10-09 09:30 2.58 89 2600 (2010) 32 (2001) 182 32 35 52 54 64 83 104 276 1900
2019-10-09 08:30 2.58 89 2600 (2010) 32 (2001) 182 32 35 52 54 64 83 104 276 1900
2019-10-09 07:30 2.58 89 2600 (2010) 32 (2001) 182 32 35 52 54 64 83 104 276 1900
2019-10-09 06:30 2.58 89 2600 (2010) 32 (2001) 182 32 35 52 54 64 83 104 276 1900
2019-10-09 05:30 2.58 89 2600 (2010) 32 (2001) 182 32 35 52 54 64 83 104 276 1900
2019-10-09 04:30 2.58 89 2600 (2010) 32 (2001) 182 32 35 52 54 64 83 104 276 1900
2019-10-09 03:30 2.59 91 2600 (2010) 32 (2001) 182 32 35 52 54 64 83 104 276 1900
2019-10-09 02:30 2.59 91 2600 (2010) 32 (2001) 182 32 35 52 54 64 83 104 276 1900
2019-10-09 01:30 2.59 91 2600 (2010) 32 (2001) 182 32 35 52 54 64 83 104 276 1900
2019-10-09 00:30 2.59 91 2600 (2010) 32 (2001) 182 32 35 52 54 64 83 104 276 1900
2019-10-08 23:30 2.60 92 469 (1999) 33 (2001) 92 33 37 47 50 62 86 106 198 418
2019-10-08 22:30 2.60 92 469 (1999) 33 (2001) 92 33 37 47 50 62 86 106 198 418
2019-10-08 21:30 2.60 92 469 (1999) 33 (2001) 92 33 37 47 50 62 86 106 198 418
2019-10-08 20:30 2.61 94 469 (1999) 33 (2001) 92 33 37 47 50 62 86 106 198 418
2019-10-08 19:30 2.61 94 469 (1999) 33 (2001) 92 33 37 47 50 62 86 106 198 418
2019-10-08 18:30 2.62 96 469 (1999) 33 (2001) 92 33 37 47 50 62 86 106 198 418
2019-10-08 17:30 2.62 96 469 (1999) 33 (2001) 92 33 37 47 50 62 86 106 198 418
2019-10-08 16:30 2.63 97 469 (1999) 33 (2001) 92 33 37 47 50 62 86 106 198 418
2019-10-08 15:30 2.63 97 469 (1999) 33 (2001) 92 33 37 47 50 62 86 106 198 418
2019-10-08 14:30 2.64 99 469 (1999) 33 (2001) 92 33 37 47 50 62 86 106 198 418
2019-10-08 13:30 2.64 99 469 (1999) 33 (2001) 92 33 37 47 50 62 86 106 198 418
2019-10-08 12:30 2.65 101 469 (1999) 33 (2001) 92 33 37 47 50 62 86 106 198 418
2019-10-08 11:30 2.65 101 469 (1999) 33 (2001) 92 33 37 47 50 62 86 106 198 418
2019-10-08 10:30 2.65 101 469 (1999) 33 (2001) 92 33 37 47 50 62 86 106 198 418
2019-10-08 09:30 2.65 101 469 (1999) 33 (2001) 92 33 37 47 50 62 86 106 198 418
2019-10-08 08:30 2.65 101 469 (1999) 33 (2001) 92 33 37 47 50 62 86 106 198 418
2019-10-08 07:30 2.66 102 469 (1999) 33 (2001) 92 33 37 47 50 62 86 106 198 418
2019-10-08 06:30 2.66 102 469 (1999) 33 (2001) 92 33 37 47 50 62 86 106 198 418
2019-10-08 05:30 2.66 102 469 (1999) 33 (2001) 92 33 37 47 50 62 86 106 198 418
2019-10-08 04:30 2.67 104 469 (1999) 33 (2001) 92 33 37 47 50 62 86 106 198 418
2019-10-08 03:30 2.67 104 469 (1999) 33 (2001) 92 33 37 47 50 62 86 106 198 418
2019-10-08 02:30 2.67 104 469 (1999) 33 (2001) 92 33 37 47 50 62 86 106 198 418
2019-10-08 01:30 2.68 106 469 (1999) 33 (2001) 92 33 37 47 50 62 86 106 198 418
2019-10-08 00:30 2.68 106 469 (1999) 33 (2001) 92 33 37 47 50 62 86 106 198 418
2019-10-07 23:30 2.68 106 1230 (1999) 33 (2001) 121 33 37 44 46 62 84 92 212 961
2019-10-07 22:30 2.68 106 1230 (1999) 33 (2001) 121 33 37 44 46 62 84 92 212 961
2019-10-07 21:30 2.68 106 1230 (1999) 33 (2001) 121 33 37 44 46 62 84 92 212 961
2019-10-07 20:30 2.67 104 1230 (1999) 33 (2001) 121 33 37 44 46 62 84 92 212 961
2019-10-07 19:30 2.67 104 1230 (1999) 33 (2001) 121 33 37 44 46 62 84 92 212 961
2019-10-07 18:30 2.67 104 1230 (1999) 33 (2001) 121 33 37 44 46 62 84 92 212 961
2019-10-07 17:30 2.67 104 1230 (1999) 33 (2001) 121 33 37 44 46 62 84 92 212 961
2019-10-07 16:30 2.67 104 1230 (1999) 33 (2001) 121 33 37 44 46 62 84 92 212 961
2019-10-07 15:30 2.67 104 1230 (1999) 33 (2001) 121 33 37 44 46 62 84 92 212 961
2019-10-07 14:30 2.67 104 1230 (1999) 33 (2001) 121 33 37 44 46 62 84 92 212 961
2019-10-07 13:30 2.67 104 1230 (1999) 33 (2001) 121 33 37 44 46 62 84 92 212 961
2019-10-07 12:30 2.67 104 1230 (1999) 33 (2001) 121 33 37 44 46 62 84 92 212 961
2019-10-07 11:30 2.67 104 1230 (1999) 33 (2001) 121 33 37 44 46 62 84 92 212 961
2019-10-07 10:30 2.67 104 1230 (1999) 33 (2001) 121 33 37 44 46 62 84 92 212 961
2019-10-07 09:30 2.67 104 1230 (1999) 33 (2001) 121 33 37 44 46 62 84 92 212 961
2019-10-07 08:30 2.66 102 1230 (1999) 33 (2001) 121 33 37 44 46 62 84 92 212 961
2019-10-07 07:30 2.66 102 1230 (1999) 33 (2001) 121 33 37 44 46 62 84 92 212 961
2019-10-07 06:30 2.66 102 1230 (1999) 33 (2001) 121 33 37 44 46 62 84 92 212 961
2019-10-07 05:30 2.65 101 1230 (1999) 33 (2001) 121 33 37 44 46 62 84 92 212 961
2019-10-07 04:30 2.65 101 1230 (1999) 33 (2001) 121 33 37 44 46 62 84 92 212 961
2019-10-07 03:30 2.65 101 1230 (1999) 33 (2001) 121 33 37 44 46 62 84 92 212 961
2019-10-07 02:30 2.65 101 1230 (1999) 33 (2001) 121 33 37 44 46 62 84 92 212 961
2019-10-07 01:30 2.64 99 1230 (1999) 33 (2001) 121 33 37 44 46 62 84 92 212 961
2019-10-07 00:30 2.64 99 1230 (1999) 33 (2001) 121 33 37 44 46 62 84 92 212 961

A total of 170 rows are displayed for years 1994 through 2018.

Trips for Jacks Fork River (Missouri), Alley Spring (07065495)

DateStartEndDistanceConditionDischargeHeightFishingDetails
Click for details2004-06-19 Bay Creek Eminence Total trip distance: 12.1 miles12.1 Good 154 2.46 None NoneNone Ballard, Christina
Ballard, Kevin
Ballard, Paige
Ballard, Webb
Blackford, Alicia
Blackford, Eric
Brocaille, Justin
Edmond, Alex
Edmond, Brent
Edmond, Brian
Edmond, Joseph
Ince, Brianne
Ince, Seth
Lehenbauer, Brenna
Sutter, Colby
Wilson, Jessica
Ballard, Christina; Ballard, Kevin; Ballard, Paige; Ballard, Webb; Blackford, Alicia; Blackford, Eric; Brocaille, Justin; Edmond, Alex; Edmond, Brent; Edmond, Brian; Edmond, Joseph; Ince, Brianne; Ince, Seth; Lehenbauer, Brenna; Sutter, Colby; Wilson, Jessica
No notes for this trip<i>No notes for this trip</i> USGS Gauge Data:
Alley Spring (07065495)
Discharge: 154
Height: 2.46
<b>USGS Gauge Data:</b></br />Alley Spring (07065495)<br />Discharge: 154<br />Height: 2.46
Source: EdmondSource: Edmond
Click for details1997-09-07 Alley Spring Eminence Total trip distance: 6.3 miles6.3 Good 57 None NoneNone Edmond, Brian
Edmond, Kellie
Edmond, Joseph
Edmond, Brian; Edmond, Kellie; Edmond, Joseph
No notes for this trip<i>No notes for this trip</i> USGS Gauge Data:
Alley Spring (07065495)
Discharge: 57
Height:
<b>USGS Gauge Data:</b></br />Alley Spring (07065495)<br />Discharge: 57<br />Height:
Source: EdmondSource: Edmond

A total of 2 rows are displayed.

Trip Summary for Jacks Fork River (Missouri), Alley Spring (07065495)

Miles18.4
Trips2
People17
Dates2
Years2
Months2
Rows2
Sources1

Condition Descriptions

Fishing Conditions

Fish Species

Notes

Classic Trip List

The classic River Trips application is still available for use. It is updated with the new system using a data retrofit. It is no longer maintained. The original River Trips application is no longer updated (as of 1 Dec 2016) but can be checked for errors or for the condition of the data before it was converted to the new system.